Time;durP1;ratioP1;P1;durP2;ratioP2;P2;SDS_P1;SDS_P2;PMS_P1;PMS_P2;Temp;Humidity;BMP_temperature;BMP_pressure;BME280_temperature;BME280_humidity;BME280_pressure;Samples;Min_cycle;Max_cycle;Signal;HPM_P1;HPM_P2
2023/08/03 00:01:01;;;;;;;5.60;2.03;;;;;;;17.47;100.00;98804.44;5113733;28;20048;-65
2023/08/03 00:03:29;;;;;;;3.58;1.25;;;;;;;17.45;100.00;98815.03;5112886;28;20043;-64
2023/08/03 00:05:57;;;;;;;2.60;1.20;;;;;;;17.44;100.00;98814.25;5110084;28;20036;-67
2023/08/03 00:08:26;;;;;;;3.92;1.33;;;;;;;17.44;100.00;98814.25;5110988;28;20084;-65
2023/08/03 00:10:53;;;;;;;2.63;1.40;;;;;;;17.46;100.00;98822.94;5112401;28;20408;-64
2023/08/03 00:13:21;;;;;;;3.08;1.35;;;;;;;17.45;100.00;98818.56;5113991;28;20052;-64
2023/08/03 00:15:49;;;;;;;3.40;1.45;;;;;;;17.48;100.00;98830.03;5112839;28;20043;-64
2023/08/03 00:18:17;;;;;;;1.92;1.45;;;;;;;17.48;100.00;98830.03;5112579;28;20047;-65
2023/08/03 00:20:47;;;;;;;2.15;1.35;;;;;;;17.45;100.00;98828.78;5114004;28;20059;-64
2023/08/03 00:23:15;;;;;;;4.03;1.75;;;;;;;17.44;100.00;98835.47;5113523;28;20047;-62
2023/08/03 00:25:43;;;;;;;4.00;1.38;;;;;;;17.44;100.00;98840.97;5112518;28;20051;-64
2023/08/03 00:28:11;;;;;;;5.65;1.65;;;;;;;17.44;100.00;98843.72;5100333;28;20044;-64
2023/08/03 00:30:39;;;;;;;5.72;1.60;;;;;;;17.40;100.00;98843.66;5093287;28;20492;-63
2023/08/03 00:33:06;;;;;;;5.40;1.92;;;;;;;17.40;100.00;98851.91;5107317;28;20051;-64
2023/08/03 00:35:34;;;;;;;3.47;1.60;;;;;;;17.40;100.00;98851.91;5090965;28;20052;-62
2023/08/03 00:38:02;;;;;;;5.18;2.17;;;;;;;17.38;100.00;98856.19;5108279;28;20036;-66
2023/08/03 00:40:30;;;;;;;3.92;2.05;;;;;;;17.38;100.00;98865.22;5112076;28;20055;-64
2023/08/03 00:42:57;;;;;;;4.18;1.80;;;;;;;17.41;100.00;98871.97;5113693;28;20406;-64
2023/08/03 00:45:25;;;;;;;2.85;1.63;;;;;;;17.42;100.00;98870.81;5111842;28;20059;-64
2023/08/03 00:47:53;;;;;;;12.80;2.45;;;;;;;17.41;100.00;98883.78;5110965;28;20035;-64
2023/08/03 00:50:22;;;;;;;6.22;2.47;;;;;;;17.40;100.00;98887.69;5113146;28;20054;-64
2023/08/03 00:52:49;;;;;;;5.07;2.05;;;;;;;17.40;100.00;98895.94;5112874;28;20047;-64
2023/08/03 00:55:17;;;;;;;5.13;2.15;;;;;;;17.39;100.00;98897.13;5112008;28;20040;-66
2023/08/03 00:57:45;;;;;;;7.43;2.50;;;;;;;17.40;100.00;98900.66;5111471;28;20042;-63
2023/08/03 01:00:14;;;;;;;5.55;2.35;;;;;;;17.40;100.00;98901.47;5111298;28;20047;-64
2023/08/03 01:02:42;;;;;;;7.10;2.67;;;;;;;17.39;100.00;98897.13;5112266;28;20063;-63
2023/08/03 01:05:10;;;;;;;7.72;2.50;;;;;;;17.40;100.00;98892.41;5112920;28;20048;-63
2023/08/03 01:07:37;;;;;;;7.40;2.40;;;;;;;17.41;100.00;98900.31;5111069;28;20058;-64
2023/08/03 01:10:07;;;;;;;9.52;2.90;;;;;;;17.41;100.00;98908.56;5101515;28;20055;-64
2023/08/03 01:12:35;;;;;;;5.45;2.35;;;;;;;17.40;100.00;98917.97;5117114;28;20076;-64
2023/08/03 01:15:03;;;;;;;8.15;2.70;;;;;;;17.42;100.00;98925.88;5086656;28;20051;-63
2023/08/03 01:17:33;;;;;;;7.82;2.40;;;;;;;17.40;100.00;98934.50;5080351;28;20048;-63
2023/08/03 01:20:00;;;;;;;6.28;2.50;;;;;;;17.37;100.00;98928.94;5111779;28;20040;-64
2023/08/03 01:22:29;;;;;;;5.97;2.90;;;;;;;17.36;100.00;98936.38;5116031;28;20075;-63
2023/08/03 01:24:57;;;;;;;5.32;2.30;;;;;;;17.34;100.00;98949.72;5115405;28;20062;-64
2023/08/03 01:27:25;;;;;;;4.05;2.40;;;;;;;17.35;100.00;98956.00;5115315;28;20044;-64
2023/08/03 01:29:52;;;;;;;5.35;2.55;;;;;;;17.36;100.00;98958.38;5132649;27;20063;-64
2023/08/03 01:32:20;;;;;;;5.45;2.50;;;;;;;17.36;100.00;98963.91;5116225;28;20043;-65
2023/08/03 01:34:49;;;;;;;4.28;2.03;;;;;;;17.38;100.00;98961.59;5113637;27;20548;-64
2023/08/03 01:37:19;;;;;;;6.50;2.70;;;;;;;17.36;100.00;98972.16;5105367;28;20058;-64
2023/08/03 01:39:47;;;;;;;7.72;2.67;;;;;;;17.34;100.00;98970.91;5115083;28;20088;-63
2023/08/03 01:42:15;;;;;;;6.65;2.53;;;;;;;17.34;100.00;98974.50;5116300;28;20051;-64
2023/08/03 01:44:46;;;;;;;6.30;2.50;;;;;;;17.36;100.00;98971.34;5098172;28;20051;-65
2023/08/03 01:47:13;;;;;;;7.63;2.70;;;;;;;17.35;100.00;98964.28;5114001;28;20048;-66
2023/08/03 01:49:41;;;;;;;6.97;2.30;;;;;;;17.34;100.00;98974.50;5112828;28;20055;-66
2023/08/03 01:52:09;;;;;;;4.50;2.20;;;;;;;17.30;100.00;98978.31;5116314;28;20055;-64
2023/08/03 01:54:37;;;;;;;6.82;2.47;;;;;;;17.31;100.00;98979.91;5113983;28;20056;-64
2023/08/03 01:57:05;;;;;;;6.43;2.60;;;;;;;17.31;100.00;98977.94;5114291;28;20051;-64
2023/08/03 01:59:32;;;;;;;5.93;2.75;;;;;;;17.35;100.00;98983.53;5112725;28;20043;-63
2023/08/03 02:02:00;;;;;;;3.90;2.08;;;;;;;17.39;100.00;98985.22;5097875;28;20050;-63
2023/08/03 02:04:28;;;;;;;8.55;3.47;;;;;;;17.40;100.00;98984.06;5115358;28;20096;-66
2023/08/03 02:07:06;;;;;;;5.53;2.67;;;;;;;17.38;100.00;98991.06;5111359;28;20051;-64
2023/08/03 02:09:34;;;;;;;10.23;3.13;;;;;;;17.36;100.00;98982.38;5102561;27;20496;-64
2023/08/03 02:12:02;;;;;;;11.43;3.00;;;;;;;17.35;100.00;98991.81;5115697;28;20078;-64
2023/08/03 02:14:29;;;;;;;7.50;3.00;;;;;;;17.38;100.00;98991.88;5114605;28;20055;-66
2023/08/03 02:16:57;;;;;;;8.35;2.47;;;;;;;17.38;100.00;98991.06;5114518;28;20051;-64
2023/08/03 02:19:25;;;;;;;7.55;2.92;;;;;;;17.41;100.00;98980.16;5112306;28;20039;-64
2023/08/03 02:21:53;;;;;;;5.45;2.50;;;;;;;17.40;100.00;98986.81;5114008;28;20043;-65
2023/08/03 02:24:20;;;;;;;5.00;2.13;;;;;;;17.45;100.00;98980.22;5114614;28;20052;-65
2023/08/03 02:26:48;;;;;;;8.00;2.67;;;;;;;17.51;100.00;98983.47;5097696;28;20089;-64
2023/08/03 02:29:16;;;;;;;4.68;1.85;;;;;;;17.49;100.00;98985.81;5115870;28;20054;-65
2023/08/03 02:31:44;;;;;;;3.88;1.75;;;;;;;17.47;100.00;98983.41;5114998;28;20050;-64
2023/08/03 02:34:12;;;;;;;4.45;2.10;;;;;;;17.42;100.00;98976.22;5114883;27;20048;-64
2023/08/03 02:36:43;;;;;;;4.43;1.90;;;;;;;17.48;100.00;98978.72;5098040;28;20051;-64
2023/08/03 02:39:11;;;;;;;5.10;2.30;;;;;;;17.37;100.00;98982.03;5116540;28;20047;-62
2023/08/03 02:41:43;;;;;;;5.68;1.85;;;;;;;17.40;100.00;98989.56;5116736;28;20088;-64
2023/08/03 02:44:18;;;;;;;7.05;2.55;;;;;;;17.42;100.00;98984.50;5129220;28;20071;-63
2023/08/03 02:46:49;;;;;;;9.93;2.78;;;;;;;17.42;100.00;98973.47;5124087;28;20578;-63
2023/08/03 02:49:16;;;;;;;8.88;2.80;;;;;;;17.43;100.00;98977.03;5116989;28;20075;-63
2023/08/03 02:51:44;;;;;;;9.27;2.60;;;;;;;17.39;100.00;98985.22;5122154;28;20068;-65
2023/08/03 02:54:14;;;;;;;13.52;3.90;;;;;;;17.32;100.00;98982.31;5099355;28;20075;-64
2023/08/03 02:56:47;;;;;;;9.85;2.95;;;;;;;17.30;100.00;98979.09;5106407;28;20047;-64
2023/08/03 02:59:18;;;;;;;14.38;3.88;;;;;;;17.27;100.00;98971.56;5080502;28;20044;-64
2023/08/03 03:01:46;;;;;;;7.68;2.88;;;;;;;17.23;100.00;98976.19;5096880;28;20487;-64
2023/08/03 03:04:17;;;;;;;12.13;3.20;;;;;;;17.24;100.00;98980.53;5114450;28;20055;-67
2023/08/03 03:06:47;;;;;;;10.90;3.22;;;;;;;17.22;100.00;98980.09;5096707;28;20637;-64
2023/08/03 03:09:15;;;;;;;11.15;2.85;;;;;;;17.20;100.00;98965.91;5113491;28;20407;-65
2023/08/03 03:11:47;;;;;;;10.65;3.50;;;;;;;17.19;100.00;98945.03;5096239;28;20048;-65
2023/08/03 03:14:16;;;;;;;9.05;2.80;;;;;;;17.17;100.00;98950.91;5112251;28;20048;-65
2023/08/03 03:16:44;;;;;;;13.32;3.70;;;;;;;17.16;100.00;98951.25;5113301;28;20092;-64
2023/08/03 03:19:12;;;;;;;12.75;3.25;;;;;;;17.15;100.00;98979.91;5113277;28;20058;-63
2023/08/03 03:21:42;;;;;;;10.70;3.03;;;;;;;17.13;100.00;98982.25;5113285;28;20487;-67
2023/08/03 03:24:10;;;;;;;11.25;3.30;;;;;;;17.11;100.00;98985.34;5110826;28;20047;-65
2023/08/03 03:26:37;;;;;;;12.30;2.95;;;;;;;17.12;100.00;98999.91;5112854;28;20051;-64
2023/08/03 03:29:05;;;;;;;11.13;3.22;;;;;;;17.10;100.00;98993.94;5114308;28;20564;-64
2023/08/03 03:31:33;;;;;;;10.27;3.17;;;;;;;17.09;100.00;99011.63;5113694;28;20395;-64
2023/08/03 03:34:03;;;;;;;11.70;2.83;;;;;;;17.08;100.00;99004.50;5112241;28;20043;-65
2023/08/03 03:36:32;;;;;;;10.05;3.00;;;;;;;17.07;100.00;99011.19;5112725;28;20052;-65
2023/08/03 03:39:00;;;;;;;13.90;3.90;;;;;;;17.07;100.00;99017.47;5113102;28;20050;-65
2023/08/03 03:41:28;;;;;;;8.73;2.80;;;;;;;17.04;100.00;99041.00;5112872;28;20057;-65
2023/08/03 03:43:55;;;;;;;9.82;2.53;;;;;;;17.02;100.00;99035.03;5112094;28;20043;-63
2023/08/03 03:46:23;;;;;;;12.25;3.05;;;;;;;17.02;100.00;99035.03;5113292;28;20055;-64
2023/08/03 03:48:51;;;;;;;7.75;2.80;;;;;;;17.01;100.00;99047.22;5112487;28;20060;-64
2023/08/03 03:51:21;;;;;;;10.20;2.50;;;;;;;17.00;100.00;99044.81;5112529;28;20104;-63
2023/08/03 03:53:53;;;;;;;7.97;2.60;;;;;;;17.01;100.00;99058.22;5129108;27;20040;-62
2023/08/03 03:56:21;;;;;;;8.48;2.60;;;;;;;17.00;100.00;99053.06;5112613;28;20043;-65
2023/08/03 03:58:49;;;;;;;6.85;2.25;;;;;;;17.00;100.00;99061.31;5095791;28;20048;-65
2023/08/03 04:01:17;;;;;;;5.20;2.53;;;;;;;16.99;100.00;99068.00;5093065;28;20048;-65
2023/08/03 04:03:47;;;;;;;5.30;2.13;;;;;;;16.95;100.00;99065.13;5075089;28;20035;-66
2023/08/03 04:06:15;;;;;;;7.65;2.58;;;;;;;16.96;100.00;99063.19;5112089;28;20059;-66
2023/08/03 04:08:43;;;;;;;7.32;2.28;;;;;;;16.95;100.00;99069.84;5111399;28;20040;-66
2023/08/03 04:11:11;;;;;;;7.78;2.83;;;;;;;16.94;100.00;99080.06;5113165;28;20058;-65
2023/08/03 04:13:38;;;;;;;5.55;2.45;;;;;;;16.93;100.00;99088.66;5113223;28;20061;-65
2023/08/03 04:16:06;;;;;;;7.25;2.38;;;;;;;16.92;100.00;99090.59;5109709;28;20054;-64
2023/08/03 04:18:35;;;;;;;7.82;2.67;;;;;;;16.93;100.00;99096.91;5110512;28;20051;-64
2023/08/03 04:21:03;;;;;;;5.97;2.13;;;;;;;16.92;100.00;99101.63;5111026;28;20047;-64
2023/08/03 04:23:31;;;;;;;9.15;2.78;;;;;;;16.92;100.00;99101.63;5112077;28;20070;-64
2023/08/03 04:26:01;;;;;;;7.38;2.42;;;;;;;16.93;100.00;99105.97;5110491;28;20040;-63
2023/08/03 04:28:29;;;;;;;6.80;2.25;;;;;;;16.92;100.00;99111.81;5112509;28;20047;-64
2023/08/03 04:30:57;;;;;;;5.55;1.88;;;;;;;16.92;100.00;99104.38;5088615;28;20407;-63
2023/08/03 04:33:27;;;;;;;8.90;2.20;;;;;;;16.93;100.00;99114.22;5069777;28;20093;-63
2023/08/03 04:35:59;;;;;;;6.13;1.73;;;;;;;16.92;100.00;99123.63;5105705;28;20479;-65
2023/08/03 04:38:33;;;;;;;8.18;2.25;;;;;;;16.93;100.00;99124.41;5111922;28;20132;-64
2023/08/03 04:41:03;;;;;;;3.88;1.65;;;;;;;16.93;100.00;99128.00;5112710;28;20456;-65
2023/08/03 04:43:34;;;;;;;7.32;1.92;;;;;;;16.92;100.00;99134.63;5098771;28;20048;-64
2023/08/03 04:46:02;;;;;;;5.50;2.08;;;;;;;16.92;100.00;99133.84;5114283;28;20050;-66
2023/08/03 04:48:30;;;;;;;5.00;2.13;;;;;;;16.91;100.00;99138.53;5114515;28;20043;-65
2023/08/03 04:51:01;;;;;;;8.68;2.10;;;;;;;16.93;100.00;99140.91;5133171;27;20043;-66
2023/08/03 04:53:28;;;;;;;5.22;1.95;;;;;;;16.92;100.00;99142.88;5114877;28;20051;-65
2023/08/03 04:55:57;;;;;;;3.58;1.60;;;;;;;16.91;100.00;99149.53;5115347;28;20043;-64
2023/08/03 04:58:24;;;;;;;7.43;2.10;;;;;;;16.91;100.00;99149.53;5097375;28;20496;-63
2023/08/03 05:00:52;;;;;;;7.32;1.85;;;;;;;16.90;100.00;99145.19;5115898;28;20048;-64
2023/08/03 05:03:20;;;;;;;3.65;1.52;;;;;;;16.91;100.00;99160.56;5116676;28;20051;-65
2023/08/03 05:05:48;;;;;;;5.72;1.90;;;;;;;16.91;100.00;99151.47;5096298;28;20048;-64
2023/08/03 05:08:22;;;;;;;5.75;1.70;;;;;;;16.90;100.00;99158.13;5087679;28;20530;-65
2023/08/03 05:10:51;;;;;;;4.70;1.80;;;;;;;16.89;100.00;99167.56;5115212;28;20059;-65
2023/08/03 05:13:21;;;;;;;8.48;2.08;;;;;;;16.87;100.00;99158.84;5117125;28;20054;-64
2023/08/03 05:15:49;;;;;;;4.28;1.70;;;;;;;16.88;100.00;99172.22;5115482;28;20051;-67
2023/08/03 05:18:16;;;;;;;6.30;1.95;;;;;;;16.90;100.00;99180.16;5113910;28;20483;-68
2023/08/03 05:20:44;;;;;;;4.25;1.80;;;;;;;16.88;100.00;99177.75;5105041;28;20104;-62
2023/08/03 05:23:20;;;;;;;5.43;1.83;;;;;;;16.87;100.00;99189.09;5097850;28;20044;-65
2023/08/03 05:25:53;;;;;;;4.72;2.13;;;;;;;16.87;100.00;99192.66;5098722;28;20054;-64
2023/08/03 05:28:21;;;;;;;4.55;1.45;;;;;;;16.86;100.00;99190.25;5113908;28;20058;-65
2023/08/03 05:30:49;;;;;;;4.00;1.73;;;;;;;16.86;100.00;99193.81;5114408;28;20128;-65
2023/08/03 05:33:17;;;;;;;6.57;2.05;;;;;;;16.84;100.00;99201.63;5115530;28;20062;-64
2023/08/03 05:35:48;;;;;;;5.25;1.90;;;;;;;16.83;100.00;99205.50;5115379;28;20103;-66
2023/08/03 05:38:18;;;;;;;4.00;1.50;;;;;;;16.86;100.00;99210.31;5099112;28;20046;-66
2023/08/03 05:40:45;;;;;;;7.88;2.20;;;;;;;16.83;100.00;99213.75;5097906;28;20058;-65
2023/08/03 05:43:14;;;;;;;4.78;1.65;;;;;;;16.80;100.00;99215.25;5116030;28;20096;-65
2023/08/03 05:45:44;;;;;;;6.22;2.00;;;;;;;16.79;100.00;99223.88;5098596;28;20479;-65
2023/08/03 05:48:14;;;;;;;4.13;1.73;;;;;;;16.79;100.00;99234.88;5098890;28;20077;-65
2023/08/03 05:50:47;;;;;;;8.43;2.17;;;;;;;16.80;100.00;99230.97;5115865;28;20055;-64
2023/08/03 05:53:16;;;;;;;8.52;2.30;;;;;;;16.79;100.00;99235.66;5117989;28;20111;-65
2023/08/03 05:55:44;;;;;;;3.00;1.42;;;;;;;16.81;100.00;99238.06;4402335;28;10021854;-64
2023/08/03 05:58:28;;;;;;;13.25;2.65;;;;;;;16.84;100.00;99237.38;5091314;28;20044;-66
2023/08/03 06:00:55;;;;;;;6.50;2.30;;;;;;;16.86;100.00;99239.75;5082456;28;20052;-66
2023/08/03 06:03:23;;;;;;;7.72;2.65;;;;;;;16.84;100.00;99256.63;5110799;28;20062;-66
2023/08/03 06:05:51;;;;;;;8.77;2.40;;;;;;;16.84;100.00;99253.88;5111199;28;20040;-65
2023/08/03 06:08:21;;;;;;;9.13;3.22;;;;;;;16.85;100.00;99263.72;5111795;28;20059;-65
2023/08/03 06:11:10;;;;;;;12.25;3.45;;;;;;;16.89;100.00;99266.59;5110127;28;20047;-65
2023/08/03 06:13:39;;;;;;;9.65;2.60;;;;;;;16.89;100.00;99264.63;5110978;28;20047;-65
2023/08/03 06:16:11;;;;;;;9.38;2.78;;;;;;;16.92;100.00;99263.13;5112828;28;20141;-66
2023/08/03 06:18:54;;;;;;;10.43;2.65;;;;;;;16.95;100.00;99270.69;5111286;28;20047;-65
2023/08/03 06:21:26;;;;;;;13.20;3.28;;;;;;;16.89;100.00;99267.38;5109791;28;20040;-65
2023/08/03 06:23:57;;;;;;;12.70;3.22;;;;;;;16.86;100.00;99275.53;5111777;28;20043;-65
2023/08/03 06:26:26;;;;;;;10.85;2.72;;;;;;;16.85;100.00;99277.47;5096427;28;20055;-65
2023/08/03 06:28:54;;;;;;;11.40;2.70;;;;;;;16.80;100.00;99285.97;5091848;28;20090;-66
2023/08/03 06:31:39;;;;;;;10.07;2.80;;;;;;;16.81;100.00;99282.06;5056450;28;20059;-69
2023/08/03 06:34:13;;;;;;;11.53;3.03;;;;;;;16.80;100.00;99281.28;5101875;28;20051;-66
2023/08/03 06:36:42;;;;;;;15.02;3.28;;;;;;;16.81;100.00;99304.06;5095821;28;20483;-66
2023/08/03 06:39:11;;;;;;;12.63;3.10;;;;;;;16.78;100.00;99293.75;5115763;28;20052;-64
2023/08/03 06:41:38;;;;;;;11.60;2.80;;;;;;;16.77;100.00;99300.41;5108821;28;20044;-64
2023/08/03 06:44:12;;;;;;;15.93;3.22;;;;;;;16.77;100.00;99308.66;5103431;28;20092;-63
2023/08/03 06:46:40;;;;;;;14.10;3.28;;;;;;;16.75;100.00;99308.19;5119558;28;20050;-63
2023/08/03 06:49:08;;;;;;;11.48;2.80;;;;;;;16.75;100.00;99305.44;5116704;28;20052;-65
2023/08/03 06:51:38;;;;;;;11.90;2.72;;;;;;;16.74;100.00;99309.31;5115444;28;20114;-64
2023/08/03 06:54:05;;;;;;;9.27;3.00;;;;;;;16.72;100.00;99319.91;5104412;28;20047;-64
2023/08/03 06:56:36;;;;;;;11.77;2.58;;;;;;;16.72;100.00;99317.94;5106915;28;20099;-65
2023/08/03 06:59:04;;;;;;;7.68;2.55;;;;;;;16.72;100.00;99336.41;5116060;28;20392;-62
2023/08/03 07:01:32;;;;;;;8.07;2.63;;;;;;;16.73;100.00;99329.75;5117766;28;20059;-64
2023/08/03 07:03:59;;;;;;;9.63;3.13;;;;;;;16.69;100.00;99337.88;5117757;28;20051;-66
2023/08/03 07:06:27;;;;;;;7.28;2.22;;;;;;;16.69;100.00;99335.13;5119725;28;20118;-64
2023/08/03 07:08:55;;;;;;;5.82;2.17;;;;;;;16.76;100.00;99340.03;5132928;28;20044;-60
2023/08/03 07:11:23;;;;;;;6.50;2.08;;;;;;;16.83;100.00;99349.34;5132349;28;20063;-63
2023/08/03 07:13:51;;;;;;;6.22;2.20;;;;;;;16.83;100.00;99345.78;5120740;28;20047;-64
2023/08/03 07:16:19;;;;;;;8.30;2.78;;;;;;;16.87;100.00;99351.41;5117270;28;20134;-65
2023/08/03 07:18:46;;;;;;;6.53;2.70;;;;;;;16.88;100.00;99347.50;5120828;28;20040;-63
2023/08/03 07:21:14;;;;;;;5.95;2.00;;;;;;;16.90;100.00;99345.22;5121643;28;20040;-62
2023/08/03 07:23:42;;;;;;;8.00;2.17;;;;;;;16.91;100.00;99358.63;5122756;28;20118;-63
2023/08/03 07:26:15;;;;;;;9.45;2.63;;;;;;;16.94;100.00;99357.94;5117176;28;20050;-62
2023/08/03 07:28:43;;;;;;;10.90;2.72;;;;;;;16.93;100.00;99361.03;5115416;28;20058;-64
2023/08/03 07:31:14;;;;;;;9.63;2.70;;;;;;;16.93;100.00;99359.09;5114823;28;20484;-63
2023/08/03 07:33:42;;;;;;;9.38;3.17;;;;;;;16.95;100.00;99366.97;5113460;28;20035;-63
2023/08/03 07:36:16;;;;;;;8.70;3.50;;;;;;;16.94;100.00;99371.69;5114275;28;20043;-62
2023/08/03 07:38:44;;;;;;;8.38;2.80;;;;;;;16.94;100.00;99374.44;5110058;28;20067;-63
2023/08/03 07:41:12;;;;;;;8.82;2.65;;;;;;;16.92;100.00;99376.72;5096647;28;20044;-63
2023/08/03 07:43:39;;;;;;;10.57;3.05;;;;;;;16.90;100.00;99379.03;5112916;28;20056;-63
2023/08/03 07:46:07;;;;;;;10.85;3.08;;;;;;;16.88;100.00;99386.81;5113751;28;20058;-64
2023/08/03 07:48:35;;;;;;;8.55;2.97;;;;;;;16.89;100.00;99388.44;5114347;28;20047;-63
2023/08/03 07:51:13;;;;;;;13.77;3.83;;;;;;;16.93;100.00;99400.38;5108523;28;20066;-64
2023/08/03 07:53:41;;;;;;;8.40;2.67;;;;;;;16.90;100.00;99390.03;5088772;28;20444;-64
2023/08/03 07:56:15;;;;;;;12.70;3.15;;;;;;;16.91;100.00;99399.91;5089762;28;20052;-64
2023/08/03 07:58:44;;;;;;;13.52;3.97;;;;;;;16.92;100.00;99398.75;5112952;28;20044;-64
2023/08/03 08:01:12;;;;;;;11.18;3.53;;;;;;;16.92;100.00;99407.00;5113016;28;20054;-64
2023/08/03 08:03:40;;;;;;;12.23;3.33;;;;;;;16.96;100.00;99420.88;5112554;28;20407;-63
2023/08/03 08:06:15;;;;;;;13.90;3.53;;;;;;;16.93;100.00;99419.63;5084610;28;20044;-64
2023/08/03 08:08:43;;;;;;;14.90;3.67;;;;;;;16.91;100.00;99423.84;5111652;28;20102;-64
2023/08/03 08:11:13;;;;;;;10.80;2.92;;;;;;;16.88;100.00;99427.28;5095987;28;20039;-64
2023/08/03 08:13:41;;;;;;;13.50;2.92;;;;;;;16.83;100.00;99429.13;5111746;28;20047;-65
2023/08/03 08:16:11;;;;;;;11.43;2.90;;;;;;;16.81;100.00;99430.59;5096215;28;20129;-64
2023/08/03 08:18:39;;;;;;;13.68;3.53;;;;;;;16.83;100.00;99447.56;5117407;28;20040;-65
2023/08/03 08:21:10;;;;;;;11.50;3.28;;;;;;;16.80;100.00;99442.78;5118538;28;20048;-65
2023/08/03 08:23:39;;;;;;;12.30;3.30;;;;;;;16.81;100.00;99441.63;5115073;28;20043;-66
2023/08/03 08:26:12;;;;;;;11.95;4.47;;;;;;;16.86;100.00;99446.91;5117255;28;20052;-63
2023/08/03 08:28:41;;;;;;;10.80;3.20;;;;;;;16.88;100.00;99461.09;5113412;28;20051;-63
2023/08/03 08:31:17;;;;;;;10.50;2.60;;;;;;;16.87;100.00;99465.00;5097833;28;20396;-66
2023/08/03 08:33:45;;;;;;;10.18;3.28;;;;;;;16.87;100.00;99475.22;5080730;28;20044;-64
2023/08/03 08:36:21;;;;;;;11.07;3.20;;;;;;;16.92;100.00;99484.03;5116995;28;20048;-64
2023/08/03 08:38:49;;;;;;;9.25;2.80;;;;;;;16.91;100.00;99484.38;5118144;28;20125;-65
2023/08/03 08:41:16;;;;;;;8.90;2.90;;;;;;;16.92;100.00;99492.28;5118148;28;20483;-65
2023/08/03 08:43:44;;;;;;;10.60;2.67;;;;;;;16.92;100.00;99499.75;5117917;28;20055;-65
2023/08/03 08:46:12;;;;;;;11.30;3.10;;;;;;;16.92;100.00;99508.78;5097872;28;20400;-65
2023/08/03 08:48:40;;;;;;;12.02;3.03;;;;;;;16.92;100.00;99508.78;5100474;28;20048;-64
2023/08/03 08:51:11;;;;;;;9.43;2.50;;;;;;;16.91;100.00;99509.97;5118053;28;20047;-65
2023/08/03 08:53:39;;;;;;;8.85;3.00;;;;;;;16.93;100.00;99521.44;5115718;28;20101;-64
2023/08/03 08:56:09;;;;;;;9.18;2.95;;;;;;;16.95;100.00;99523.81;5116873;28;20051;-65
2023/08/03 08:58:57;;;;;;;9.93;3.08;;;;;;;16.93;100.00;99528.84;5117698;28;20040;-65
2023/08/03 09:01:46;;;;;;;8.43;2.67;;;;;;;16.91;100.00;99525.63;5117588;28;20052;-65
2023/08/03 09:04:14;;;;;;;9.70;2.40;;;;;;;16.93;100.00;99534.34;5097433;28;20114;-65
2023/08/03 09:06:44;;;;;;;9.75;3.00;;;;;;;16.98;100.00;99540.47;5095124;28;20429;-67
2023/08/03 09:09:13;;;;;;;8.88;2.70;;;;;;;17.04;100.00;99547.31;5116770;28;20506;-67
2023/08/03 09:11:41;;;;;;;10.85;2.90;;;;;;;17.11;100.00;99549.53;5117585;28;20042;-64
2023/08/03 09:14:10;;;;;;;9.73;2.90;;;;;;;17.12;100.00;99555.81;5115673;28;20092;-65
2023/08/03 09:16:38;;;;;;;12.35;2.72;;;;;;;17.14;100.00;99559.84;5098999;28;20047;-65
2023/08/03 09:19:06;;;;;;;8.10;2.60;;;;;;;17.19;100.00;99565.09;5116305;28;20409;-65
2023/08/03 09:21:34;;;;;;;10.07;2.90;;;;;;;17.22;100.00;99561.69;5116293;28;20057;-66
2023/08/03 09:24:18;;;;;;;9.52;2.75;;;;;;;17.25;100.00;99576.72;5116417;28;20043;-65
2023/08/03 09:26:48;;;;;;;9.57;2.75;;;;;;;17.26;100.00;99589.31;5117301;28;20050;-65
2023/08/03 09:29:19;;;;;;;7.43;2.75;;;;;;;17.28;100.00;99591.75;5098574;28;20055;-65
2023/08/03 09:32:03;;;;;;;8.60;3.20;;;;;;;17.30;100.00;99592.22;5117410;28;20511;-65
2023/08/03 09:34:36;;;;;;;9.27;2.53;;;;;;;17.28;100.00;99597.25;5115257;28;20060;-67
2023/08/03 09:37:08;;;;;;;9.52;2.55;;;;;;;17.27;100.00;99607.47;5116930;28;20051;-65
2023/08/03 09:39:38;;;;;;;10.93;3.10;;;;;;;17.33;100.00;99614.34;5115754;28;20048;-65
2023/08/03 09:42:07;;;;;;;7.00;2.78;;;;;;;17.37;100.00;99615.25;5116918;28;20052;-66
2023/08/03 09:44:55;;;;;;;10.73;3.20;;;;;;;17.41;100.00;99618.94;5115622;28;20035;-65
2023/08/03 09:47:24;;;;;;;12.38;3.28;;;;;;;17.44;100.00;99633.97;5116241;28;20419;-65
2023/08/03 09:49:56;;;;;;;10.27;3.30;;;;;;;17.48;100.00;99637.63;5115629;28;20063;-65
2023/08/03 09:52:32;;;;;;;12.25;3.40;;;;;;;17.53;100.00;99645.66;5111166;28;20051;-65
2023/08/03 09:55:12;;;;;;;9.27;2.97;;;;;;;17.60;100.00;99647.84;5115865;28;20035;-66
2023/08/03 09:57:50;;;;;;;10.82;3.30;;;;;;;17.66;100.00;99650.03;5116595;28;20043;-65
2023/08/03 10:00:19;;;;;;;10.32;3.20;;;;;;;17.66;100.00;99654.75;5113333;28;20137;-67
2023/08/03 10:02:55;;;;;;;13.82;3.70;;;;;;;17.67;100.00;99664.59;5114871;28;20062;-64
2023/08/03 10:05:26;;;;;;;8.32;3.42;;;;;;;17.66;100.00;99663.03;5114911;28;20370;-68
2023/08/03 10:08:12;;;;;;;14.27;3.80;;;;;;;17.69;100.00;99670.59;5096309;28;20044;-66
2023/08/03 10:10:44;;;;;;;16.70;4.95;;;;;;;17.74;100.00;99670.34;5098636;28;20055;-64
2023/08/03 10:13:12;;;;;;;10.40;3.50;;;;;;;17.81;100.00;99681.63;5116208;28;20043;-65
2023/08/03 10:15:41;;;;;;;16.48;5.18;;;;;;;17.89;100.00;99688.16;5096617;28;20058;-64
2023/08/03 10:18:09;;;;;;;12.98;3.83;;;;;;;17.96;100.00;99695.88;5095761;28;20052;-65
2023/08/03 10:20:38;;;;;;;12.98;4.22;;;;;;;18.00;100.00;99685.78;5115485;28;20044;-64
2023/08/03 10:23:21;;;;;;;22.52;8.30;;;;;;;18.08;100.00;99695.84;5115893;28;20047;-69
2023/08/03 10:25:57;;;;;;;13.90;4.38;;;;;;;18.14;100.00;99694.47;5106155;28;20047;-64
2023/08/03 10:28:37;;;;;;;28.77;14.05;;;;;;;18.15;100.00;99695.28;4755185;28;10000301;-64
2023/08/03 10:31:18;;;;;;;14.05;4.72;;;;;;;18.13;100.00;99695.63;5111008;28;20059;-66
2023/08/03 10:33:49;;;;;;;36.00;18.88;;;;;;;18.21;100.00;99699.41;5110949;28;20503;-65
2023/08/03 10:36:29;;;;;;;19.00;6.05;;;;;;;18.26;100.00;99705.50;5112466;28;20491;-66
2023/08/03 10:39:00;;;;;;;14.43;3.78;;;;;;;18.32;100.00;99714.31;5109576;28;20495;-66
2023/08/03 10:41:37;;;;;;;22.67;8.68;;;;;;;18.29;100.00;99715.81;5109364;28;20047;-66
2023/08/03 10:44:14;;;;;;;59.42;33.53;;;;;;;18.33;100.00;99717.88;5110698;28;20055;-67
2023/08/03 10:46:49;;;;;;;15.77;3.90;;;;;;;18.29;100.00;99734.31;5111676;28;20062;-65
2023/08/03 10:49:21;;;;;;;35.72;20.85;;;;;;;18.26;100.00;99724.78;5110182;28;20564;-64
2023/08/03 10:52:15;;;;;;;11.65;3.42;;;;;;;18.25;100.00;99733.41;5111591;28;20056;-64
2023/08/03 10:54:43;;;;;;;15.50;6.60;;;;;;;18.26;100.00;99748.81;5110188;28;20057;-67
2023/08/03 10:57:13;;;;;;;15.02;4.25;;;;;;;18.23;100.00;99747.56;5110583;28;20059;-66
2023/08/03 10:59:47;;;;;;;13.98;3.65;;;;;;;18.23;100.00;99758.59;5074179;28;20092;-66
2023/08/03 11:02:30;;;;;;;16.67;3.92;;;;;;;18.24;100.00;99760.19;5106509;27;1288206;-66
2023/08/03 11:05:01;;;;;;;21.83;10.73;;;;;;;18.28;100.00;99755.59;5125644;27;20051;-67
2023/08/03 11:07:38;;;;;;;16.13;6.70;;;;;;;18.36;100.00;99751.09;5111524;28;20055;-66
2023/08/03 11:10:11;;;;;;;16.17;4.75;;;;;;;18.47;100.00;99751.41;5112980;28;20055;-66
2023/08/03 11:12:40;;;;;;;13.27;4.20;;;;;;;18.57;100.00;99762.00;5127023;28;20058;-65
2023/08/03 11:15:09;;;;;;;39.85;23.92;;;;;;;18.66;100.00;99759.06;5128004;27;20054;-65
2023/08/03 11:17:37;;;;;;;12.70;4.20;;;;;;;18.68;100.00;99765.84;5109271;28;20085;-65
2023/08/03 11:20:12;;;;;;;15.85;7.32;;;;;;;18.73;100.00;99768.38;5121395;28;20040;-65
2023/08/03 11:22:41;;;;;;;12.70;3.92;;;;;;;18.76;100.00;99782.63;5123651;28;20047;-66
2023/08/03 11:25:09;;;;;;;20.55;9.85;;;;;;;18.84;100.00;99773.44;5101576;28;20052;-67
2023/08/03 11:27:40;;;;;;;30.95;17.38;;;;;;;18.94;100.00;99789.50;5117577;28;20062;-65
2023/08/03 11:30:09;;;;;;;18.52;8.20;;;;;;;18.92;100.00;99789.84;5114455;28;20048;-64
2023/08/03 11:32:38;;;;;;;22.17;12.43;;;;;;;18.83;100.00;99811.28;5139213;28;20103;-66
2023/08/03 11:35:09;;;;;;;10.43;3.25;;;;;;;18.67;100.00;99829.69;5134920;28;20046;-65